createdAt,value
2023-01-15T00:00:44.140Z,1.11
2023-01-15T00:02:15.545Z,0.93
2023-01-15T00:03:47.140Z,1.17
2023-01-15T00:05:19.673Z,0.84
2023-01-15T00:06:51.449Z,1.09
2023-01-15T00:08:22.836Z,1.11
2023-01-15T00:09:54.144Z,1.06
2023-01-15T00:11:25.617Z,0.98
2023-01-15T00:12:57.005Z,0.98
2023-01-15T00:14:28.487Z,1.14
2023-01-15T00:16:00.055Z,1.04
2023-01-15T00:17:31.517Z,1.33
2023-01-15T00:19:02.812Z,1.23
2023-01-15T00:20:34.118Z,1.15
2023-01-15T00:22:05.895Z,1.28
2023-01-15T00:23:37.372Z,1.20
2023-01-15T00:25:08.710Z,1.32
2023-01-15T00:26:40.016Z,1.45
2023-01-15T00:28:11.459Z,1.54
2023-01-15T00:29:42.698Z,1.68
2023-01-15T00:31:14.490Z,1.59
2023-01-15T00:32:45.741Z,1.66
2023-01-15T00:34:17.236Z,1.64
2023-01-15T00:35:48.771Z,1.89
2023-01-15T00:37:20.252Z,1.98
2023-01-15T00:38:51.480Z,1.90
2023-01-15T00:40:22.762Z,1.45
2023-01-15T00:41:54.142Z,1.86
2023-01-15T00:43:25.408Z,1.36
2023-01-15T00:44:56.751Z,1.56
2023-01-15T00:46:28.345Z,1.54
2023-01-15T00:47:59.792Z,1.27
2023-01-15T00:49:31.128Z,0.82
2023-01-15T00:51:03.755Z,1.06
2023-01-15T00:52:35.034Z,0.92
2023-01-15T00:54:06.267Z,0.88
2023-01-15T00:55:37.670Z,0.96
2023-01-15T00:57:09.106Z,1.11
2023-01-15T00:58:40.427Z,1.08
2023-01-15T01:00:11.761Z,1.33
2023-01-15T01:01:44.279Z,1.03
2023-01-15T01:03:15.636Z,1.01
2023-01-15T01:04:46.875Z,0.94
2023-01-15T01:06:18.355Z,0.84
2023-01-15T01:07:50.154Z,0.87
2023-01-15T01:09:21.601Z,1.24
2023-01-15T01:10:52.892Z,1.59
2023-01-15T01:12:24.124Z,1.25
2023-01-15T01:14:00.796Z,1.23
2023-01-15T01:15:32.051Z,1.27
2023-01-15T01:17:03.302Z,1.42
2023-01-15T01:18:34.561Z,1.44
2023-01-15T01:20:05.903Z,1.41
2023-01-15T01:21:37.190Z,1.66
2023-01-15T01:23:08.739Z,1.74
2023-01-15T01:24:39.952Z,1.94
2023-01-15T01:26:11.301Z,1.72
2023-01-15T01:27:42.718Z,1.52
2023-01-15T01:29:14.382Z,1.90
2023-01-15T01:30:46.023Z,1.39
2023-01-15T01:32:17.543Z,1.53
2023-01-15T01:33:48.926Z,1.41
2023-01-15T01:35:20.197Z,1.47
2023-01-15T01:36:51.459Z,1.07
2023-01-15T01:38:22.729Z,1.24
2023-01-15T01:39:54.186Z,1.21
2023-01-15T01:41:25.577Z,1.39
2023-01-15T01:42:56.869Z,1.22
2023-01-15T01:44:28.108Z,1.22
2023-01-15T01:45:59.471Z,1.28
2023-01-15T01:47:30.769Z,1.16
2023-01-15T01:49:02.060Z,1.21
2023-01-15T01:50:33.343Z,1.19
2023-01-15T01:52:04.573Z,1.12
2023-01-15T01:53:35.793Z,0.95
2023-01-15T01:55:07.161Z,1.08
2023-01-15T01:56:38.650Z,0.89
2023-01-15T01:58:09.969Z,0.98
2023-01-15T01:59:41.634Z,1.04
2023-01-15T02:01:13.112Z,1.12
2023-01-15T02:02:44.548Z,1.30
2023-01-15T02:04:15.929Z,1.11
2023-01-15T02:05:47.315Z,1.14
2023-01-15T02:07:18.784Z,0.98
2023-01-15T02:08:50.072Z,1.04
2023-01-15T02:10:21.444Z,1.04
2023-01-15T02:11:52.829Z,0.83
2023-01-15T02:13:24.180Z,0.96
2023-01-15T02:14:55.968Z,1.09
2023-01-15T02:16:27.275Z,1.04
2023-01-15T02:17:58.615Z,1.07
2023-01-15T02:19:29.894Z,0.98
2023-01-15T02:21:01.394Z,1.01
2023-01-15T02:22:32.839Z,0.95
2023-01-15T02:24:04.227Z,0.94
2023-01-15T02:25:35.541Z,0.85
2023-01-15T02:27:07.113Z,0.95
2023-01-15T02:28:38.797Z,1.02
2023-01-15T02:30:10.357Z,0.85
2023-01-15T02:31:42.200Z,0.98
2023-01-15T02:33:13.525Z,0.90
2023-01-15T02:34:44.786Z,1.07
2023-01-15T02:36:16.041Z,0.92
2023-01-15T02:37:47.542Z,1.02
2023-01-15T02:39:18.999Z,0.96
2023-01-15T02:40:51.252Z,1.02
2023-01-15T02:42:22.724Z,0.90
2023-01-15T02:43:54.218Z,1.06
2023-01-15T02:45:25.634Z,0.83
2023-01-15T02:46:56.917Z,1.08
2023-01-15T02:48:28.423Z,0.95
2023-01-15T02:49:59.836Z,1.19
2023-01-15T02:51:31.397Z,1.00
2023-01-15T02:53:02.637Z,1.00
2023-01-15T02:54:33.932Z,1.10
2023-01-15T02:56:05.304Z,1.15
2023-01-15T02:57:36.578Z,1.33
2023-01-15T02:59:07.948Z,1.20
2023-01-15T03:00:39.303Z,1.40
2023-01-15T03:02:10.757Z,1.58
2023-01-15T03:03:42.214Z,1.38
2023-01-15T03:05:13.690Z,1.54
2023-01-15T03:06:45.038Z,1.57
2023-01-15T03:08:16.371Z,1.66
2023-01-15T03:09:47.769Z,1.98
2023-01-15T03:11:19.175Z,1.55
2023-01-15T03:12:50.502Z,1.67
2023-01-15T03:14:21.770Z,1.31
2023-01-15T03:15:53.054Z,1.09
2023-01-15T03:17:24.620Z,1.25
2023-01-15T03:18:55.843Z,1.41
2023-01-15T03:20:27.541Z,1.48
2023-01-15T03:21:58.924Z,1.20
2023-01-15T03:23:30.427Z,1.64
2023-01-15T03:25:01.804Z,1.39
2023-01-15T03:26:33.053Z,1.43
2023-01-15T03:28:04.535Z,1.14
2023-01-15T03:29:35.942Z,1.46
2023-01-15T03:31:08.220Z,1.42
2023-01-15T03:32:39.475Z,1.36
2023-01-15T03:34:10.879Z,1.40
2023-01-15T03:35:42.143Z,1.32
2023-01-15T03:37:13.532Z,1.21
2023-01-15T03:38:44.879Z,1.20
2023-01-15T03:40:16.344Z,1.16
2023-01-15T03:41:47.623Z,1.09
2023-01-15T03:43:20.111Z,1.25
2023-01-15T03:44:56.459Z,1.23
2023-01-15T03:46:27.949Z,1.26
2023-01-15T03:47:59.242Z,1.21
2023-01-15T03:49:30.507Z,1.39
2023-01-15T03:51:01.750Z,1.42
2023-01-15T03:52:32.998Z,1.46
2023-01-15T03:54:04.353Z,1.56
2023-01-15T03:55:35.639Z,1.18
2023-01-15T03:57:11.998Z,1.31
2023-01-15T03:58:43.382Z,1.29
2023-01-15T04:00:14.758Z,1.54
2023-01-15T04:01:46.235Z,1.15
2023-01-15T04:03:17.617Z,1.14
2023-01-15T04:04:48.947Z,1.26
2023-01-15T04:06:20.271Z,1.09
2023-01-15T04:07:51.655Z,1.14
2023-01-15T04:09:23.102Z,1.08
2023-01-15T04:10:54.637Z,1.25
2023-01-15T04:12:26.265Z,1.29
2023-01-15T04:13:57.626Z,1.08
2023-01-15T04:15:29.110Z,0.96
2023-01-15T04:17:00.958Z,1.11
2023-01-15T04:18:32.238Z,1.12
2023-01-15T04:20:03.664Z,1.14
2023-01-15T04:21:34.878Z,1.19
2023-01-15T04:23:06.551Z,2.11
2023-01-15T04:24:37.930Z,1.65
2023-01-15T04:26:09.206Z,1.19
2023-01-15T04:27:40.478Z,1.45
2023-01-15T04:29:11.762Z,1.59
2023-01-15T04:30:43.146Z,1.72
2023-01-15T04:32:15.507Z,1.62
2023-01-15T04:33:46.793Z,1.44
2023-01-15T04:35:18.059Z,1.49
2023-01-15T04:36:49.322Z,1.89
2023-01-15T04:38:20.895Z,1.60
2023-01-15T04:39:52.244Z,1.40
2023-01-15T04:41:23.720Z,1.59
2023-01-15T04:42:55.082Z,1.43
2023-01-15T04:44:26.545Z,1.28
2023-01-15T04:45:57.994Z,1.38
2023-01-15T04:47:29.409Z,1.19
2023-01-15T04:49:00.788Z,1.19
2023-01-15T04:50:32.080Z,1.23
2023-01-15T04:52:03.410Z,1.21
2023-01-15T04:53:34.756Z,1.40
2023-01-15T04:55:06.180Z,1.26
2023-01-15T04:56:37.652Z,1.48
2023-01-15T04:58:08.934Z,1.25
2023-01-15T04:59:40.249Z,1.36
2023-01-15T05:01:11.706Z,1.24
2023-01-15T05:02:43.082Z,1.44
2023-01-15T05:04:14.579Z,1.36
2023-01-15T05:05:46.052Z,1.30
2023-01-15T05:07:17.934Z,1.04
2023-01-15T05:08:49.202Z,1.20
2023-01-15T05:10:20.589Z,1.17
2023-01-15T05:11:51.902Z,1.31
2023-01-15T05:13:23.117Z,1.23
2023-01-15T05:14:54.608Z,1.80
2023-01-15T05:16:26.122Z,1.62
2023-01-15T05:17:57.368Z,1.75
2023-01-15T05:19:28.801Z,1.46
2023-01-15T05:21:00.323Z,1.50
2023-01-15T05:22:31.683Z,1.46
2023-01-15T05:24:02.897Z,1.46
2023-01-15T05:25:34.077Z,1.65
2023-01-15T05:27:05.701Z,1.24
2023-01-15T05:28:37.232Z,1.85
2023-01-15T05:30:08.457Z,1.79
2023-01-15T05:31:39.837Z,2.09
2023-01-15T05:33:11.279Z,1.81
2023-01-15T05:34:42.571Z,2.01
2023-01-15T05:36:13.928Z,2.60
2023-01-15T05:37:45.521Z,2.88
2023-01-15T05:39:17.056Z,2.70
2023-01-15T05:40:48.315Z,2.50
2023-01-15T05:42:19.656Z,2.47
2023-01-15T05:43:51.006Z,2.60
2023-01-15T05:45:22.247Z,2.18
2023-01-15T05:46:53.626Z,2.05
2023-01-15T05:48:25.210Z,2.33
2023-01-15T05:49:56.457Z,2.08
2023-01-15T05:51:27.797Z,1.72
2023-01-15T05:52:59.156Z,1.70
2023-01-15T05:54:30.445Z,1.70
2023-01-15T05:56:02.861Z,1.78
2023-01-15T05:57:34.261Z,1.88
2023-01-15T05:59:05.520Z,1.33
2023-01-15T06:00:36.878Z,1.29
2023-01-15T06:02:08.459Z,1.93
2023-01-15T06:03:39.948Z,1.75
2023-01-15T06:05:11.117Z,1.73
2023-01-15T06:06:42.534Z,1.70
2023-01-15T06:08:14.056Z,1.67
2023-01-15T06:09:45.451Z,1.61
2023-01-15T06:11:16.867Z,1.82
2023-01-15T06:12:48.343Z,1.50
2023-01-15T06:14:19.905Z,2.13
2023-01-15T06:15:51.257Z,1.79
2023-01-15T06:17:22.696Z,1.59
2023-01-15T06:18:54.014Z,1.51
2023-01-15T06:20:25.365Z,1.35
2023-01-15T06:21:56.746Z,1.22
2023-01-15T06:23:28.478Z,1.63
2023-01-15T06:24:59.820Z,1.73
2023-01-15T06:26:36.308Z,1.76
2023-01-15T06:28:07.846Z,1.59
2023-01-15T06:29:39.257Z,1.69
2023-01-15T06:31:10.605Z,1.67
2023-01-15T06:32:41.900Z,1.73
2023-01-15T06:34:13.441Z,2.19
2023-01-15T06:35:44.849Z,1.75
2023-01-15T06:37:16.296Z,1.72
2023-01-15T06:38:47.698Z,1.52
2023-01-15T06:40:19.100Z,1.63
2023-01-15T06:41:50.408Z,1.40
2023-01-15T06:43:21.649Z,1.26
2023-01-15T06:44:52.930Z,1.82
2023-01-15T06:46:24.496Z,1.21
2023-01-15T06:48:00.746Z,1.76
2023-01-15T06:49:32.127Z,1.50
2023-01-15T06:51:03.472Z,1.71
2023-01-15T06:52:34.844Z,1.57
2023-01-15T06:54:06.170Z,1.77
2023-01-15T06:55:37.367Z,2.01
2023-01-15T06:57:08.590Z,1.57
2023-01-15T06:58:39.859Z,1.44
2023-01-15T07:00:11.213Z,1.54
2023-01-15T07:01:42.530Z,1.61
2023-01-15T07:03:13.875Z,1.80
2023-01-15T07:04:45.439Z,1.98
2023-01-15T07:06:16.900Z,2.06
2023-01-15T07:07:48.154Z,2.15
2023-01-15T07:09:19.523Z,1.96
2023-01-15T07:10:50.936Z,2.08
2023-01-15T07:12:22.194Z,1.73
2023-01-15T07:13:53.520Z,1.47
2023-01-15T07:15:25.215Z,1.33
2023-01-15T07:16:56.714Z,1.87
2023-01-15T07:18:38.783Z,1.76
2023-01-15T07:20:11.191Z,1.68
2023-01-15T07:21:42.405Z,1.63
2023-01-15T07:23:16.004Z,2.25
2023-01-15T07:24:48.051Z,2.18
2023-01-15T07:26:19.697Z,2.00
2023-01-15T07:27:51.374Z,1.84
2023-01-15T07:29:22.948Z,1.83
2023-01-15T07:30:54.291Z,2.03
2023-01-15T07:32:25.548Z,1.80
2023-01-15T07:33:56.831Z,1.85
2023-01-15T07:35:28.201Z,1.68
2023-01-15T07:37:04.410Z,2.02
2023-01-15T07:38:35.627Z,2.17
2023-01-15T07:40:06.979Z,1.22
2023-01-15T07:41:38.263Z,1.48
2023-01-15T07:43:09.604Z,1.70
2023-01-15T07:44:41.212Z,1.47
2023-01-15T07:46:12.771Z,1.34
2023-01-15T07:47:44.290Z,1.58
2023-01-15T07:49:15.783Z,1.52
2023-01-15T07:50:47.847Z,1.44
2023-01-15T07:52:19.273Z,1.60
2023-01-15T07:53:50.892Z,1.44
2023-01-15T07:55:22.368Z,1.48
2023-01-15T07:56:53.741Z,1.16
2023-01-15T07:58:25.045Z,1.38
2023-01-15T07:59:57.963Z,1.50
2023-01-15T08:01:29.461Z,1.55
2023-01-15T08:03:00.961Z,1.81
2023-01-15T08:04:32.223Z,1.47
2023-01-15T08:06:03.563Z,1.35
2023-01-15T08:07:34.863Z,1.78
2023-01-15T08:09:07.467Z,3.26
2023-01-15T08:10:38.734Z,3.72
2023-01-15T08:12:10.124Z,4.90
2023-01-15T08:13:41.416Z,5.11
2023-01-15T08:15:12.903Z,3.46
2023-01-15T08:16:44.317Z,3.18
2023-01-15T08:18:15.969Z,1.86
2023-01-15T08:19:47.220Z,1.43
2023-01-15T08:21:18.574Z,1.43
2023-01-15T08:22:50.031Z,1.40
2023-01-15T08:24:21.398Z,1.64
2023-01-15T08:25:52.790Z,1.72
2023-01-15T08:27:24.148Z,1.44
2023-01-15T08:28:55.525Z,1.52
2023-01-15T08:30:26.991Z,1.51
2023-01-15T08:31:58.508Z,1.23
2023-01-15T08:33:29.761Z,1.48
2023-01-15T08:35:01.171Z,1.44
2023-01-15T08:36:42.768Z,1.28
2023-01-15T08:38:14.125Z,1.53
2023-01-15T08:39:46.429Z,1.58
2023-01-15T08:41:17.838Z,1.66
2023-01-15T08:42:49.240Z,1.06
2023-01-15T08:44:20.614Z,0.97
2023-01-15T08:45:52.007Z,1.26
2023-01-15T08:47:23.386Z,1.44
2023-01-15T08:48:54.824Z,1.55
2023-01-15T08:50:26.141Z,1.27
2023-01-15T08:51:57.425Z,0.92
2023-01-15T08:53:28.649Z,1.00
2023-01-15T08:55:01.175Z,0.88
2023-01-15T08:56:32.586Z,1.31
2023-01-15T08:58:03.809Z,1.10
2023-01-15T08:59:35.109Z,0.76
2023-01-15T09:01:06.499Z,1.01
2023-01-15T09:02:38.130Z,1.07
2023-01-15T09:04:09.444Z,1.18
2023-01-15T09:05:41.382Z,1.05
2023-01-15T09:07:13.189Z,1.55
2023-01-15T09:08:44.656Z,1.02
2023-01-15T09:10:15.990Z,1.16
2023-01-15T09:11:47.281Z,1.04
2023-01-15T09:13:18.600Z,1.27
2023-01-15T09:14:57.350Z,1.07
2023-01-15T09:16:33.056Z,0.96
2023-01-15T09:18:04.564Z,0.98
2023-01-15T09:19:35.864Z,1.00
2023-01-15T09:21:07.108Z,1.44
2023-01-15T09:22:38.388Z,1.56
2023-01-15T09:24:09.707Z,1.09
2023-01-15T09:25:41.116Z,1.27
2023-01-15T09:27:12.606Z,1.30
2023-01-15T09:28:43.956Z,1.01
2023-01-15T09:30:15.263Z,1.02
2023-01-15T09:31:46.621Z,1.32
2023-01-15T09:33:18.373Z,1.08
2023-01-15T09:34:49.749Z,1.03
2023-01-15T09:36:21.221Z,1.17
2023-01-15T09:37:53.316Z,1.62
2023-01-15T09:39:24.663Z,1.60
2023-01-15T09:40:56.044Z,1.71
2023-01-15T09:42:27.311Z,1.25
2023-01-15T09:43:58.602Z,1.12
2023-01-15T09:45:29.937Z,1.43
2023-01-15T09:47:01.400Z,1.14
2023-01-15T09:48:32.746Z,1.03
2023-01-15T09:50:04.380Z,1.05
2023-01-15T09:51:36.156Z,1.06
2023-01-15T09:53:07.774Z,0.89
2023-01-15T09:54:39.245Z,0.90
2023-01-15T09:56:10.685Z,1.35
2023-01-15T09:57:42.282Z,1.36
2023-01-15T09:59:13.883Z,1.12
2023-01-15T10:00:45.393Z,1.48
2023-01-15T10:02:16.878Z,1.30
2023-01-15T10:03:48.431Z,0.95
2023-01-15T10:05:19.859Z,1.12
2023-01-15T10:06:51.246Z,1.45
2023-01-15T10:08:22.629Z,1.34
2023-01-15T10:09:54.161Z,1.24
2023-01-15T10:11:26.059Z,1.13
2023-01-15T10:12:57.323Z,1.05
2023-01-15T10:14:28.752Z,1.31
2023-01-15T10:16:00.126Z,1.53
2023-01-15T10:17:31.819Z,1.07
2023-01-15T10:19:03.166Z,1.17
2023-01-15T10:20:34.471Z,1.25
2023-01-15T10:22:05.721Z,1.42
2023-01-15T10:23:37.020Z,2.16
2023-01-15T10:25:08.557Z,1.32
2023-01-15T10:26:40.648Z,1.53
2023-01-15T10:28:12.320Z,1.91
2023-01-15T10:29:43.783Z,1.11
2023-01-15T10:31:15.348Z,1.12
2023-01-15T10:33:00.974Z,1.03
2023-01-15T10:34:33.274Z,1.07
2023-01-15T10:36:04.648Z,1.46
2023-01-15T10:37:35.925Z,1.13
2023-01-15T10:39:07.151Z,1.21
2023-01-15T10:40:38.569Z,1.00
2023-01-15T10:42:09.807Z,1.09
2023-01-15T10:43:41.224Z,1.10
2023-01-15T10:45:13.025Z,1.30
2023-01-15T10:46:44.380Z,1.04
2023-01-15T10:48:15.643Z,1.22
2023-01-15T10:49:47.031Z,1.30
2023-01-15T10:51:18.340Z,1.08
2023-01-15T10:52:49.684Z,1.12
2023-01-15T10:54:20.956Z,1.31
2023-01-15T10:55:52.284Z,1.43
2023-01-15T10:57:24.108Z,1.36
2023-01-15T10:58:55.425Z,1.51
2023-01-15T11:00:26.681Z,1.24
2023-01-15T11:01:58.145Z,1.70
2023-01-15T11:03:29.540Z,1.92
2023-01-15T11:05:00.972Z,1.80
2023-01-15T11:06:32.316Z,1.70
2023-01-15T11:08:34.226Z,1.45
2023-01-15T11:10:19.780Z,1.06
2023-01-15T11:11:51.310Z,1.16
2023-01-15T11:13:22.601Z,1.22
2023-01-15T11:14:53.911Z,1.21
2023-01-15T11:16:25.436Z,1.68
2023-01-15T11:17:56.821Z,1.51
2023-01-15T11:19:28.429Z,1.39
2023-01-15T11:21:04.926Z,1.11
2023-01-15T11:22:36.272Z,1.28
2023-01-15T11:24:07.575Z,1.18
2023-01-15T11:25:38.892Z,1.00
2023-01-15T11:27:10.273Z,1.22
2023-01-15T11:28:41.605Z,1.45
2023-01-15T11:30:12.881Z,1.14
2023-01-15T11:31:44.396Z,1.34
2023-01-15T11:33:15.885Z,1.16
2023-01-15T11:34:47.224Z,1.08
2023-01-15T11:36:18.612Z,1.27
2023-01-15T11:37:50.012Z,1.19
2023-01-15T11:39:21.390Z,1.49
2023-01-15T11:40:53.589Z,1.31
2023-01-15T11:42:25.508Z,0.92
2023-01-15T11:43:56.842Z,1.08
2023-01-15T11:45:28.229Z,1.47
2023-01-15T11:46:59.874Z,1.48
2023-01-15T11:48:31.290Z,1.32
2023-01-15T11:50:03.693Z,1.08
2023-01-15T11:51:34.988Z,1.17
2023-01-15T11:53:06.321Z,1.04
2023-01-15T11:54:38.011Z,1.26
2023-01-15T11:56:09.427Z,1.36
2023-01-15T11:57:40.799Z,1.03
2023-01-15T11:59:12.848Z,1.01
2023-01-15T12:00:44.183Z,1.32
2023-01-15T12:02:15.541Z,0.93
2023-01-15T12:03:47.109Z,0.94
2023-01-15T12:05:18.408Z,1.04
2023-01-15T12:06:49.697Z,1.00
2023-01-15T12:08:21.004Z,1.06
2023-01-15T12:09:52.363Z,1.28
2023-01-15T12:11:27.195Z,1.03
2023-01-15T12:12:58.933Z,1.16
2023-01-15T12:14:30.286Z,1.29
2023-01-15T12:16:01.792Z,1.14
2023-01-15T12:17:33.285Z,1.10
2023-01-15T12:19:04.927Z,1.24
2023-01-15T12:20:36.518Z,1.25
2023-01-15T12:22:09.037Z,1.33
2023-01-15T12:23:40.442Z,1.36
2023-01-15T12:25:11.812Z,1.00
2023-01-15T12:26:43.153Z,1.07
2023-01-15T12:28:14.622Z,1.23
2023-01-15T12:29:45.908Z,0.79
2023-01-15T12:31:17.220Z,1.12
2023-01-15T12:32:48.871Z,0.76
2023-01-15T12:34:20.709Z,0.99
2023-01-15T12:35:52.449Z,1.14
2023-01-15T12:37:29.162Z,0.97
2023-01-15T12:39:01.086Z,0.72
2023-01-15T12:40:32.761Z,1.00
2023-01-15T12:42:04.134Z,0.90
2023-01-15T12:44:04.572Z,0.81
2023-01-15T12:45:52.073Z,0.92
2023-01-15T12:47:23.321Z,0.94
2023-01-15T12:48:54.824Z,1.07
2023-01-15T12:50:26.384Z,0.87
2023-01-15T12:51:57.991Z,0.80
2023-01-15T12:53:34.284Z,0.95
2023-01-15T12:55:05.527Z,0.97
2023-01-15T12:56:36.849Z,1.60
2023-01-15T12:58:37.816Z,1.19
2023-01-15T13:00:42.612Z,0.93
2023-01-15T13:02:14.297Z,0.89
2023-01-15T13:03:45.554Z,1.15
2023-01-15T13:05:16.943Z,0.85
2023-01-15T13:06:48.549Z,0.96
2023-01-15T13:08:20.093Z,1.06
2023-01-15T13:09:51.639Z,0.93
2023-01-15T13:11:23.007Z,0.97
2023-01-15T13:12:54.398Z,1.02
2023-01-15T13:14:25.705Z,0.79
2023-01-15T13:15:57.309Z,0.82
2023-01-15T13:17:28.653Z,0.81
2023-01-15T13:18:59.903Z,0.97
2023-01-15T13:20:31.467Z,1.31
2023-01-15T13:22:02.770Z,1.08
2023-01-15T13:23:34.302Z,0.79
2023-01-15T13:25:05.678Z,0.89
2023-01-15T13:26:37.008Z,0.93
2023-01-15T13:28:08.349Z,0.79
2023-01-15T13:29:40.068Z,0.95
2023-01-15T13:31:11.570Z,1.02
2023-01-15T13:32:42.930Z,1.14
2023-01-15T13:34:14.225Z,0.91
2023-01-15T13:35:45.539Z,1.14
2023-01-15T13:37:17.059Z,0.93
2023-01-15T13:38:48.335Z,0.97
2023-01-15T13:40:19.848Z,0.90
2023-01-15T13:41:51.118Z,1.19
2023-01-15T13:43:22.513Z,0.99
2023-01-15T13:44:53.912Z,1.10
2023-01-15T13:46:25.383Z,0.99
2023-01-15T13:47:56.689Z,1.33
2023-01-15T13:49:27.930Z,1.33
2023-01-15T13:50:59.410Z,1.26
2023-01-15T13:52:31.146Z,0.98
2023-01-15T13:54:02.542Z,0.93
2023-01-15T13:55:33.916Z,0.99
2023-01-15T13:57:05.303Z,0.89
2023-01-15T13:58:37.684Z,1.46
2023-01-15T14:00:09.205Z,0.89
2023-01-15T14:01:41.076Z,0.84
2023-01-15T14:03:12.461Z,0.91
2023-01-15T14:04:43.698Z,1.19
2023-01-15T14:06:15.085Z,0.92
2023-01-15T14:07:46.355Z,1.01
2023-01-15T14:09:17.625Z,0.84
2023-01-15T14:10:48.972Z,0.79
2023-01-15T14:12:20.250Z,0.96
2023-01-15T14:13:51.708Z,1.10
2023-01-15T14:15:23.024Z,1.11
2023-01-15T14:16:54.496Z,1.19
2023-01-15T14:18:26.073Z,1.12
2023-01-15T14:19:58.240Z,1.47
2023-01-15T14:21:34.843Z,1.08
2023-01-15T14:23:06.389Z,1.05
2023-01-15T14:24:37.966Z,1.05
2023-01-15T14:26:09.602Z,0.77
2023-01-15T14:27:40.933Z,1.02
2023-01-15T14:29:12.142Z,0.90
2023-01-15T14:30:43.343Z,1.17
2023-01-15T14:32:14.693Z,1.14
2023-01-15T14:33:46.236Z,1.03
2023-01-15T14:35:17.670Z,1.01
2023-01-15T14:36:49.266Z,1.17
2023-01-15T14:38:21.052Z,1.03
2023-01-15T14:39:52.419Z,1.22
2023-01-15T14:41:24.289Z,1.00
2023-01-15T14:42:55.649Z,1.13
2023-01-15T14:44:26.932Z,0.97
2023-01-15T14:45:58.230Z,0.87
2023-01-15T14:47:29.618Z,0.89
2023-01-15T14:49:00.890Z,0.96
2023-01-15T14:50:32.512Z,1.05
2023-01-15T14:52:03.810Z,1.16
2023-01-15T14:53:35.141Z,1.16
2023-01-15T14:55:06.376Z,0.98
2023-01-15T14:56:37.704Z,0.83
2023-01-15T14:58:08.968Z,1.30
2023-01-15T14:59:40.573Z,1.07
2023-01-15T15:01:22.165Z,1.07
2023-01-15T15:02:53.853Z,1.30
2023-01-15T15:04:26.689Z,1.26
2023-01-15T15:05:58.080Z,1.01
2023-01-15T15:07:29.564Z,1.08
2023-01-15T15:09:01.119Z,1.11
2023-01-15T15:10:32.511Z,1.14
2023-01-15T15:12:04.995Z,0.93
2023-01-15T15:13:36.374Z,0.79
2023-01-15T15:15:07.685Z,0.95
2023-01-15T15:16:38.986Z,0.94
2023-01-15T15:18:10.300Z,1.11
2023-01-15T15:19:41.804Z,0.96
2023-01-15T15:21:13.046Z,0.90
2023-01-15T15:22:44.527Z,0.90
2023-01-15T15:24:17.140Z,1.05
2023-01-15T15:25:53.694Z,1.00
2023-01-15T15:27:30.535Z,0.96
2023-01-15T15:29:01.935Z,1.20
2023-01-15T15:30:33.449Z,1.44
2023-01-15T15:32:05.386Z,1.17
2023-01-15T15:33:36.809Z,1.07
2023-01-15T15:35:08.039Z,1.04
2023-01-15T15:36:39.876Z,1.06
2023-01-15T15:38:11.233Z,1.28
2023-01-15T15:39:42.694Z,0.88
2023-01-15T15:41:14.068Z,1.00
2023-01-15T15:42:45.608Z,0.92
2023-01-15T15:44:16.887Z,0.74
2023-01-15T15:45:49.608Z,0.84
2023-01-15T15:47:21.197Z,1.16
2023-01-15T15:48:52.883Z,1.42
2023-01-15T15:50:24.257Z,1.32
2023-01-15T15:51:55.520Z,1.23
2023-01-15T15:53:26.756Z,0.87
2023-01-15T15:54:58.049Z,0.70
2023-01-15T15:56:30.681Z,0.93
2023-01-15T15:58:02.103Z,1.02
2023-01-15T15:59:33.766Z,0.89
2023-01-15T16:01:05.191Z,1.05
2023-01-15T16:02:36.783Z,1.10
2023-01-15T16:04:08.066Z,1.21
2023-01-15T16:05:39.366Z,1.32
2023-01-15T16:07:10.727Z,1.48
2023-01-15T16:08:47.056Z,0.86
2023-01-15T16:10:18.358Z,0.79
2023-01-15T16:11:49.703Z,1.13
2023-01-15T16:13:21.118Z,0.87
2023-01-15T16:14:52.400Z,0.74
2023-01-15T16:16:23.945Z,0.74
2023-01-15T16:17:55.347Z,0.98
2023-01-15T16:19:31.812Z,0.79
2023-01-15T16:21:03.108Z,0.89
2023-01-15T16:22:34.588Z,1.29
2023-01-15T16:24:06.052Z,1.23
2023-01-15T16:25:37.855Z,1.07
2023-01-15T16:27:09.399Z,0.93
2023-01-15T16:28:40.811Z,1.05
2023-01-15T16:30:12.038Z,1.14
2023-01-15T16:31:43.437Z,0.93
2023-01-15T16:33:14.800Z,0.98
2023-01-15T16:34:46.141Z,1.22
2023-01-15T16:36:17.461Z,1.20
2023-01-15T16:37:48.756Z,1.61
2023-01-15T16:39:20.090Z,1.24
2023-01-15T16:40:51.486Z,0.93
2023-01-15T16:42:22.760Z,0.92
2023-01-15T16:43:54.031Z,0.80
2023-01-15T16:45:25.297Z,0.95
2023-01-15T16:46:56.561Z,0.95
2023-01-15T16:48:27.900Z,0.98
2023-01-15T16:49:59.622Z,0.89
2023-01-15T16:51:30.983Z,0.91
2023-01-15T16:53:02.346Z,0.79
2023-01-15T16:54:33.903Z,1.16
2023-01-15T16:56:05.444Z,1.41
2023-01-15T16:57:36.700Z,1.02
2023-01-15T16:59:07.920Z,0.89
2023-01-15T17:02:49.298Z,1.58
2023-01-15T17:04:20.723Z,1.27
2023-01-15T17:05:52.015Z,1.05
2023-01-15T17:07:23.534Z,1.05
2023-01-15T17:08:54.931Z,1.07
2023-01-15T17:10:26.412Z,1.14
2023-01-15T17:11:57.996Z,1.16
2023-01-15T17:13:29.512Z,1.00
2023-01-15T17:15:01.061Z,1.39
2023-01-15T17:16:32.414Z,1.07
2023-01-15T17:18:08.749Z,1.00
2023-01-15T17:19:40.065Z,1.26
2023-01-15T17:21:11.395Z,1.38
2023-01-15T17:22:42.723Z,1.31
2023-01-15T17:24:19.005Z,0.94
2023-01-15T17:25:50.284Z,0.95
2023-01-15T17:27:21.682Z,1.06
2023-01-15T17:28:53.022Z,1.23
2023-01-15T17:30:24.298Z,1.09
2023-01-15T17:31:55.718Z,1.21
2023-01-15T17:33:27.105Z,1.45
2023-01-15T17:34:58.440Z,1.26
2023-01-15T17:36:29.969Z,1.14
2023-01-15T17:38:01.476Z,1.04
2023-01-15T17:39:32.717Z,1.20
2023-01-15T17:41:03.940Z,1.20
2023-01-15T17:42:35.250Z,1.09
2023-01-15T17:44:06.607Z,1.17
2023-01-15T17:45:38.088Z,1.02
2023-01-15T17:47:09.321Z,1.36
2023-01-15T17:48:45.667Z,1.07
2023-01-15T17:50:17.055Z,1.26
2023-01-15T17:51:48.643Z,1.15
2023-01-15T17:53:19.998Z,1.06
2023-01-15T17:54:51.480Z,0.90
2023-01-15T17:56:22.785Z,1.23
2023-01-15T17:57:54.292Z,1.04
2023-01-15T17:59:25.552Z,1.20
2023-01-15T18:00:56.846Z,1.15
2023-01-15T18:02:28.368Z,1.23
2023-01-15T18:03:59.597Z,1.18
2023-01-15T18:05:31.195Z,1.52
2023-01-15T18:07:07.488Z,1.32
2023-01-15T18:08:39.170Z,0.91
2023-01-15T18:10:10.405Z,0.79
2023-01-15T18:11:41.803Z,1.30
2023-01-15T18:13:13.148Z,1.06
2023-01-15T18:14:44.537Z,0.94
2023-01-15T18:16:23.718Z,0.99
2023-01-15T18:17:55.054Z,0.82
2023-01-15T18:19:26.772Z,0.82
2023-01-15T18:20:58.545Z,0.79
2023-01-15T18:22:29.954Z,0.65
2023-01-15T18:24:01.852Z,0.98
2023-01-15T18:25:33.353Z,0.97
2023-01-15T18:27:04.740Z,1.28
2023-01-15T18:28:39.302Z,1.18
2023-01-15T18:30:46.786Z,1.04
2023-01-15T18:32:18.433Z,1.13
2023-01-15T18:33:50.977Z,1.27
2023-01-15T18:35:32.553Z,1.29
2023-01-15T18:37:28.999Z,1.08
2023-01-15T18:39:00.704Z,1.18
2023-01-15T18:40:53.183Z,0.91
2023-01-15T18:42:24.979Z,0.91
2023-01-15T18:43:56.869Z,1.16
2023-01-15T18:45:28.903Z,1.49
2023-01-15T18:47:01.029Z,1.40
2023-01-15T18:48:32.938Z,1.26
2023-01-15T18:50:04.593Z,1.25
2023-01-15T18:51:35.956Z,1.10
2023-01-15T18:53:18.796Z,1.07
2023-01-15T18:54:50.940Z,0.72
2023-01-15T18:56:36.864Z,0.99
2023-01-15T18:58:40.166Z,0.93
2023-01-15T19:00:12.395Z,0.96
2023-01-15T19:02:20.841Z,1.24
2023-01-15T19:04:04.365Z,1.10
2023-01-15T19:05:36.192Z,0.98
2023-01-15T19:07:18.022Z,1.02
2023-01-15T19:09:09.482Z,1.25
2023-01-15T19:10:40.999Z,1.26
2023-01-15T19:12:12.272Z,0.90
2023-01-15T19:13:43.675Z,1.27
2023-01-15T19:15:15.045Z,1.30
2023-01-15T19:16:46.419Z,1.21
2023-01-15T19:18:27.690Z,1.24
2023-01-15T19:19:59.196Z,1.03
2023-01-15T19:22:06.107Z,1.48
2023-01-15T19:23:38.091Z,1.25
2023-01-15T19:25:09.853Z,1.56
2023-01-15T19:26:41.629Z,1.76
2023-01-15T19:28:13.540Z,1.49
2023-01-15T19:29:45.404Z,1.35
2023-01-15T19:31:16.819Z,1.36
2023-01-15T19:32:59.940Z,1.70
2023-01-15T19:34:43.808Z,1.46
2023-01-15T19:36:16.251Z,1.57
2023-01-15T19:40:34.425Z,1.78
2023-01-15T19:42:05.818Z,1.82
2023-01-15T19:43:37.220Z,1.67
2023-01-15T19:45:08.722Z,1.27
2023-01-15T19:47:16.797Z,1.46
2023-01-15T19:48:48.963Z,1.90
2023-01-15T19:50:52.277Z,1.44
2023-01-15T19:52:33.962Z,1.51
2023-01-15T19:54:06.493Z,1.26
2023-01-15T19:56:05.403Z,1.53
2023-01-15T19:57:42.184Z,1.73
2023-01-15T19:59:19.061Z,1.71
2023-01-15T20:00:50.738Z,1.46
2023-01-15T20:02:22.136Z,1.46
2023-01-15T20:04:23.067Z,1.85
2023-01-15T20:05:54.673Z,1.80
2023-01-15T20:07:26.006Z,1.71
2023-01-15T20:08:57.527Z,1.80
2023-01-15T20:10:44.000Z,1.82
2023-01-15T20:12:15.440Z,1.53
2023-01-15T20:13:47.331Z,1.65
2023-01-15T20:15:38.820Z,1.38
2023-01-15T20:17:10.768Z,1.61
2023-01-15T20:18:48.768Z,1.66
2023-01-15T20:20:25.433Z,1.68
2023-01-15T20:21:57.095Z,1.67
2023-01-15T20:23:28.640Z,1.55
2023-01-15T20:25:19.954Z,1.63
2023-01-15T20:27:11.042Z,1.44
2023-01-15T20:29:02.716Z,1.82
2023-01-15T20:30:38.986Z,1.21
2023-01-15T20:32:10.531Z,1.60
2023-01-15T20:33:42.035Z,1.79
2023-01-15T20:35:14.539Z,1.69
2023-01-15T20:37:02.219Z,1.54